Time;durP1;ratioP1;P1;durP2;ratioP2;P2;SDS_P1;SDS_P2;PMS_P1;PMS_P2;Temp;Humidity;BMP_temperature;BMP_pressure;BME280_temperature;BME280_humidity;BME280_pressure;Samples;Min_cycle;Max_cycle;Signal;HPM_P1;HPM_P2
2022/05/21 00:01:36;;;;;;;2.90;1.80;;;;;;;;;;5051554;28;20230;-77
2022/05/21 00:04:03;;;;;;;5.00;2.13;;;;;;;;;;5051577;28;20198;-78
2022/05/21 00:06:30;;;;;;;4.97;2.30;;;;;;;;;;5051161;28;20198;-78
2022/05/21 00:08:58;;;;;;;2.17;2.03;;;;;;;;;;5051371;28;20233;-78
2022/05/21 00:11:25;;;;;;;4.07;1.90;;;;;;;;;;5051384;28;20202;-78
2022/05/21 00:13:52;;;;;;;3.37;1.70;;;;;;;;;;5051793;28;20198;-78
2022/05/21 00:16:19;;;;;;;2.33;1.80;;;;;;;;;;5051380;28;20578;-77
2022/05/21 00:18:48;;;;;;;2.07;1.93;;;;;;;;;;5051626;28;20198;-78
2022/05/21 00:21:15;;;;;;;1.73;1.63;;;;;;;;;;5051227;28;20194;-77
2022/05/21 00:23:43;;;;;;;1.87;1.77;;;;;;;;;;5051258;28;20204;-77
2022/05/21 00:26:12;;;;;;;1.60;1.50;;;;;;;;;;5051364;28;20202;-78
2022/05/21 00:28:41;;;;;;;2.50;1.97;;;;;;;;;;5051052;28;20286;-78
2022/05/21 00:31:10;;;;;;;3.17;1.73;;;;;;;;;;5051528;28;20202;-78
2022/05/21 00:33:38;;;;;;;2.33;1.70;;;;;;;;;;5051396;28;20205;-78
2022/05/21 00:36:07;;;;;;;3.13;1.70;;;;;;;;;;5050926;28;20202;-78
2022/05/21 00:38:35;;;;;;;1.77;1.67;;;;;;;;;;5051188;27;20198;-79
2022/05/21 00:41:02;;;;;;;5.03;1.80;;;;;;;;;;5051093;28;20575;-78
2022/05/21 00:43:45;;;;;;;6.47;1.77;;;;;;;;;;5051049;28;20202;-78
2022/05/21 00:46:14;;;;;;;1.60;1.50;;;;;;;;;;5050860;28;20201;-78
2022/05/21 00:48:42;;;;;;;2.10;1.77;;;;;;;;;;5051188;28;20244;-78
2022/05/21 00:51:16;;;;;;;4.80;1.83;;;;;;;;;;5051179;28;20198;-79
2022/05/21 00:53:45;;;;;;;2.77;1.87;;;;;;;;;;5050421;28;20574;-78
2022/05/21 00:56:13;;;;;;;2.67;2.10;;;;;;;;;;5050968;28;20199;-77
2022/05/21 01:01:25;;;;;;;2.00;1.90;;;;;;;;;;5050747;28;20332;-77
2022/05/21 01:03:53;;;;;;;3.40;2.00;;;;;;;;;;5030923;28;20205;-78
2022/05/21 01:06:21;;;;;;;2.00;1.60;;;;;;;;;;5030450;28;20203;-78
2022/05/21 01:08:48;;;;;;;3.13;1.80;;;;;;;;;;5030662;28;20237;-78
2022/05/21 01:11:17;;;;;;;3.53;1.93;;;;;;;;;;5030682;28;20194;-78
2022/05/21 01:13:46;;;;;;;1.60;1.50;;;;;;;;;;5030980;28;20207;-78
2022/05/21 01:16:13;;;;;;;6.43;1.90;;;;;;;;;;5030408;28;20253;-78
2022/05/21 01:18:40;;;;;;;5.13;1.70;;;;;;;;;;5030496;28;20214;-78
2022/05/21 01:21:08;;;;;;;7.10;2.97;;;;;;;;;;5030509;28;20195;-77
2022/05/21 01:23:36;;;;;;;7.27;2.87;;;;;;;;;;5030461;28;20666;-77
2022/05/21 01:26:06;;;;;;;2.13;1.93;;;;;;;;;;5030678;28;20194;-78
2022/05/21 01:28:34;;;;;;;2.60;1.60;;;;;;;;;;5030121;28;20193;-78
2022/05/21 01:31:03;;;;;;;3.87;1.90;;;;;;;;;;5030156;28;20206;-78
2022/05/21 01:33:33;;;;;;;2.50;1.83;;;;;;;;;;5030402;28;20720;-78
2022/05/21 01:36:01;;;;;;;2.10;1.97;;;;;;;;;;5030353;28;20191;-77
2022/05/21 01:38:30;;;;;;;2.57;1.80;;;;;;;;;;5030272;28;20199;-79
2022/05/21 01:40:59;;;;;;;1.87;1.77;;;;;;;;;;5030443;28;20232;-77
2022/05/21 01:46:11;;;;;;;4.63;1.93;;;;;;;;;;5030427;28;20241;-78
2022/05/21 01:48:38;;;;;;;2.40;2.20;;;;;;;;;;5029877;28;20207;-78
2022/05/21 01:51:06;;;;;;;3.30;2.10;;;;;;;;;;5029950;28;20256;-78
2022/05/21 01:53:34;;;;;;;2.50;2.00;;;;;;;;;;5030324;28;20743;-78
2022/05/21 01:56:04;;;;;;;2.70;2.00;;;;;;;;;;5030142;28;20202;-78
2022/05/21 01:58:31;;;;;;;2.10;1.90;;;;;;;;;;5030003;28;20213;-78
2022/05/21 02:00:59;;;;;;;4.43;1.67;;;;;;;;;;5029617;28;20229;-78
2022/05/21 02:03:26;;;;;;;3.20;2.10;;;;;;;;;;5029698;28;20234;-78
2022/05/21 02:05:54;;;;;;;2.30;2.00;;;;;;;;;;5029777;28;20256;-78
2022/05/21 02:08:21;;;;;;;2.20;1.90;;;;;;;;;;5029649;28;20195;-78
2022/05/21 02:10:49;;;;;;;2.17;1.97;;;;;;;;;;5029881;28;20325;-78
2022/05/21 02:13:19;;;;;;;1.97;1.67;;;;;;;;;;5029828;28;20674;-78
2022/05/21 02:15:46;;;;;;;3.23;1.77;;;;;;;;;;5029384;28;20199;-78
2022/05/21 02:18:14;;;;;;;1.80;1.70;;;;;;;;;;5030065;28;20203;-78
2022/05/21 02:20:41;;;;;;;2.40;2.13;;;;;;;;;;5029595;28;20300;-78
2022/05/21 02:23:11;;;;;;;2.93;2.23;;;;;;;;;;5029863;28;20194;-78
2022/05/21 02:25:38;;;;;;;2.77;2.20;;;;;;;;;;5029305;28;20206;-78
2022/05/21 02:28:06;;;;;;;3.20;1.90;;;;;;;;;;5029652;28;20198;-78
2022/05/21 02:30:34;;;;;;;2.67;2.43;;;;;;;;;;5029372;28;20236;-79
2022/05/21 02:33:02;;;;;;;2.63;1.90;;;;;;;;;;5029401;28;20205;-78
2022/05/21 02:35:29;;;;;;;2.67;2.17;;;;;;;;;;5029436;28;20203;-78
2022/05/21 02:40:41;;;;;;;2.60;1.83;;;;;;;;;;5029358;28;20188;-78
2022/05/21 02:43:08;;;;;;;2.27;1.93;;;;;;;;;;5029405;28;20207;-78
2022/05/21 02:45:36;;;;;;;2.40;1.90;;;;;;;;;;5029534;28;20209;-78
2022/05/21 02:48:04;;;;;;;3.33;2.37;;;;;;;;;;5029256;28;20198;-78
2022/05/21 02:50:34;;;;;;;4.40;2.77;;;;;;;;;;5048251;28;20259;-78
2022/05/21 02:53:02;;;;;;;3.50;2.00;;;;;;;;;;5049248;28;20196;-78
2022/05/21 02:55:29;;;;;;;2.50;1.90;;;;;;;;;;5048950;28;20615;-78
2022/05/21 02:57:57;;;;;;;3.30;1.97;;;;;;;;;;5048956;28;20198;-78
2022/05/21 03:00:26;;;;;;;3.03;2.53;;;;;;;;;;5048733;28;20232;-78
2022/05/21 03:02:56;;;;;;;2.07;1.97;;;;;;;;;;5048957;28;20197;-78
2022/05/21 03:05:24;;;;;;;3.13;2.80;;;;;;;;;;5049082;28;20198;-78
2022/05/21 03:07:52;;;;;;;1.90;1.80;;;;;;;;;;5049176;28;20209;-78
2022/05/21 03:10:22;;;;;;;3.60;1.87;;;;;;;;;;5048710;28;20228;-78
2022/05/21 03:12:54;;;;;;;2.33;2.13;;;;;;;;;;5048701;28;20205;-78
2022/05/21 03:15:22;;;;;;;3.23;3.03;;;;;;;;;;5048103;28;20563;-78
2022/05/21 03:17:49;;;;;;;2.03;1.93;;;;;;;;;;5048618;28;20587;-78
2022/05/21 03:20:20;;;;;;;5.07;2.40;;;;;;;;;;5048869;28;20202;-78
2022/05/21 03:22:47;;;;;;;2.50;2.20;;;;;;;;;;5048972;28;20190;-78
2022/05/21 03:25:14;;;;;;;1.87;1.77;;;;;;;;;;5048794;28;20680;-78
2022/05/21 03:27:41;;;;;;;2.97;2.00;;;;;;;;;;5048494;28;20681;-78
2022/05/21 03:30:12;;;;;;;2.67;2.47;;;;;;;;;;5048633;28;20603;-78
2022/05/21 03:32:40;;;;;;;2.63;2.43;;;;;;;;;;5048922;28;20184;-78
2022/05/21 03:35:08;;;;;;;2.53;2.23;;;;;;;;;;5048593;28;20285;-78
2022/05/21 03:37:37;;;;;;;1.80;1.70;;;;;;;;;;5048585;28;20208;-78
2022/05/21 03:40:06;;;;;;;3.40;2.03;;;;;;;;;;5048581;28;20210;-78
2022/05/21 03:42:33;;;;;;;3.03;2.30;;;;;;;;;;5048936;28;20209;-78
2022/05/21 03:45:01;;;;;;;2.13;1.93;;;;;;;;;;5048800;28;20202;-78
2022/05/21 03:47:28;;;;;;;2.27;2.03;;;;;;;;;;5048287;28;20671;-78
2022/05/21 03:49:55;;;;;;;1.90;1.80;;;;;;;;;;5048504;28;20221;-78
2022/05/21 03:52:22;;;;;;;2.33;2.13;;;;;;;;;;5048186;28;20225;-78
2022/05/21 03:54:51;;;;;;;2.10;1.90;;;;;;;;;;5048335;28;20205;-78
2022/05/21 03:57:18;;;;;;;2.20;2.00;;;;;;;;;;5048142;28;20198;-78
2022/05/21 03:59:46;;;;;;;2.20;2.00;;;;;;;;;;5048754;28;20202;-78
2022/05/21 04:02:13;;;;;;;3.57;2.53;;;;;;;;;;5047904;28;20236;-78
2022/05/21 04:04:40;;;;;;;3.13;2.23;;;;;;;;;;5048279;28;20203;-78
2022/05/21 04:07:07;;;;;;;5.07;2.07;;;;;;;;;;5048524;28;20243;-78
2022/05/21 04:09:35;;;;;;;2.27;2.13;;;;;;;;;;5048293;28;20202;-78
2022/05/21 04:12:04;;;;;;;3.57;3.03;;;;;;;;;;5048140;28;20227;-78
2022/05/21 04:14:31;;;;;;;3.53;2.53;;;;;;;;;;5048118;28;20204;-78
2022/05/21 04:17:01;;;;;;;4.93;2.17;;;;;;;;;;5044002;28;20212;-77
2022/05/21 04:19:29;;;;;;;5.27;2.17;;;;;;;;;;5047881;28;20198;-77
2022/05/21 04:21:56;;;;;;;4.50;2.37;;;;;;;;;;5047483;28;20216;-77
2022/05/21 04:24:23;;;;;;;2.70;2.50;;;;;;;;;;5047716;28;20603;-77
2022/05/21 04:26:51;;;;;;;3.13;2.30;;;;;;;;;;5047954;28;20209;-76
2022/05/21 04:29:20;;;;;;;3.03;2.40;;;;;;;;;;5050683;28;20219;-77
2022/05/21 04:31:47;;;;;;;2.83;2.20;;;;;;;;;;5050875;28;20314;-77
2022/05/21 04:34:15;;;;;;;3.83;2.13;;;;;;;;;;5049867;28;20209;-77
2022/05/21 04:36:42;;;;;;;2.33;2.20;;;;;;;;;;5037231;28;20209;-77
2022/05/21 04:39:10;;;;;;;2.47;2.27;;;;;;;;;;5038499;28;20202;-77
2022/05/21 04:41:37;;;;;;;1.97;1.87;;;;;;;;;;5050743;28;20669;-77
2022/05/21 04:44:07;;;;;;;4.73;4.23;;;;;;;;;;5049035;28;20270;-78
2022/05/21 04:46:36;;;;;;;8.77;5.77;;;;;;;;;;5046301;28;20210;-77
2022/05/21 04:49:03;;;;;;;6.30;5.70;;;;;;;;;;5031350;28;20619;-78
2022/05/21 04:51:31;;;;;;;7.43;4.57;;;;;;;;;;5030769;28;20228;-78
2022/05/21 04:53:58;;;;;;;5.80;4.37;;;;;;;;;;5037908;28;20233;-77
2022/05/21 04:56:26;;;;;;;5.87;4.00;;;;;;;;;;5039845;28;20213;-76
2022/05/21 04:58:53;;;;;;;6.10;4.60;;;;;;;;;;5051023;28;20201;-77
2022/05/21 05:01:20;;;;;;;5.40;3.70;;;;;;;;;;5033397;28;20252;-77
2022/05/21 05:03:49;;;;;;;5.30;3.90;;;;;;;;;;5030832;28;20214;-77
2022/05/21 05:06:16;;;;;;;4.87;3.57;;;;;;;;;;5048173;28;20206;-77
2022/05/21 05:08:43;;;;;;;3.13;2.80;;;;;;;;;;5050442;28;20284;-77
2022/05/21 05:11:10;;;;;;;2.77;2.53;;;;;;;;;;5050514;28;20228;-77
2022/05/21 05:13:37;;;;;;;3.27;2.30;;;;;;;;;;5050487;28;20210;-77
2022/05/21 05:16:05;;;;;;;3.10;2.40;;;;;;;;;;5050535;28;20202;-77
2022/05/21 05:18:32;;;;;;;5.20;2.07;;;;;;;;;;5050176;28;20204;-77
2022/05/21 05:21:01;;;;;;;4.90;2.50;;;;;;;;;;5050420;28;20277;-77
2022/05/21 05:23:29;;;;;;;2.93;2.50;;;;;;;;;;5050668;28;20194;-77
2022/05/21 05:25:59;;;;;;;5.63;2.97;;;;;;;;;;5050244;28;20194;-77
2022/05/21 05:28:26;;;;;;;3.77;2.23;;;;;;;;;;5050424;28;20194;-78
2022/05/21 05:30:54;;;;;;;2.73;2.20;;;;;;;;;;5050063;28;20221;-77
2022/05/21 05:33:22;;;;;;;2.40;2.20;;;;;;;;;;5050442;28;20666;-78
2022/05/21 05:35:52;;;;;;;2.20;2.00;;;;;;;;;;5049997;28;20202;-77
2022/05/21 05:38:21;;;;;;;2.83;2.23;;;;;;;;;;5049538;28;20237;-78
2022/05/21 05:40:50;;;;;;;3.13;2.10;;;;;;;;;;5049965;28;20670;-77
2022/05/21 05:43:19;;;;;;;3.97;2.20;;;;;;;;;;5041965;28;20203;-77
2022/05/21 05:45:46;;;;;;;2.43;2.23;;;;;;;;;;5045502;28;20206;-78
2022/05/21 05:48:13;;;;;;;2.53;2.10;;;;;;;;;;5049952;28;20694;-78
2022/05/21 05:50:40;;;;;;;2.57;2.03;;;;;;;;;;5049856;28;20233;-78
2022/05/21 05:53:08;;;;;;;2.37;1.90;;;;;;;;;;5050363;28;20236;-78
2022/05/21 05:55:37;;;;;;;2.90;2.70;;;;;;;;;;5049563;28;20209;-78
2022/05/21 05:59:48;;;;;;;5.40;2.30;;;;;;;;;;5050039;28;20199;-78
2022/05/21 06:00:52;;;;;;;2.53;1.80;;;;;;;;;;5049716;28;20247;-77
2022/05/21 06:03:20;;;;;;;3.00;2.47;;;;;;;;;;5049930;28;20673;-78
2022/05/21 06:05:49;;;;;;;3.83;2.10;;;;;;;;;;5049920;28;20212;-78
2022/05/21 06:08:16;;;;;;;3.87;2.00;;;;;;;;;;5049559;28;20209;-78
2022/05/21 06:10:45;;;;;;;1.77;1.67;;;;;;;;;;5049974;28;20233;-77
2022/05/21 06:13:13;;;;;;;3.83;2.57;;;;;;;;;;5049823;28;20574;-77
2022/05/21 06:15:40;;;;;;;2.00;1.90;;;;;;;;;;5049476;28;20211;-78
2022/05/21 06:18:08;;;;;;;1.70;1.60;;;;;;;;;;5049467;28;20689;-78
2022/05/21 06:20:36;;;;;;;2.00;1.80;;;;;;;;;;5049518;28;20311;-77
2022/05/21 06:23:03;;;;;;;6.47;2.00;;;;;;;;;;5048942;28;20207;-77
2022/05/21 06:25:33;;;;;;;5.03;2.10;;;;;;;;;;5049373;28;20204;-77
2022/05/21 06:28:03;;;;;;;2.50;1.90;;;;;;;;;;5049743;28;20232;-77
2022/05/21 06:30:32;;;;;;;2.87;2.00;;;;;;;;;;5049357;28;20306;-77
2022/05/21 06:33:00;;;;;;;1.97;1.87;;;;;;;;;;5049202;28;20194;-77
2022/05/21 06:35:27;;;;;;;1.50;1.40;;;;;;;;;;5049114;28;20201;-77
2022/05/21 06:37:55;;;;;;;2.93;1.83;;;;;;;;;;5050173;27;20210;-77
2022/05/21 06:40:22;;;;;;;2.80;1.67;;;;;;;;;;5049538;28;20553;-78
2022/05/21 06:42:50;;;;;;;4.37;2.03;;;;;;;;;;5048691;28;20194;-78
2022/05/21 06:45:18;;;;;;;1.90;1.70;;;;;;;;;;5049141;28;20193;-78
2022/05/21 06:47:46;;;;;;;2.30;1.93;;;;;;;;;;5048711;28;20200;-78
2022/05/21 06:50:13;;;;;;;1.60;1.50;;;;;;;;;;5048077;28;20208;-78
2022/05/21 06:52:41;;;;;;;1.70;1.60;;;;;;;;;;5048397;28;20201;-77
2022/05/21 06:55:09;;;;;;;1.50;1.40;;;;;;;;;;5048813;28;20208;-78
2022/05/21 06:57:36;;;;;;;2.27;1.87;;;;;;;;;;5048662;28;20202;-77
2022/05/21 07:00:05;;;;;;;4.00;1.83;;;;;;;;;;5048423;28;20206;-77
2022/05/21 07:02:34;;;;;;;2.30;1.70;;;;;;;;;;5048954;28;20183;-78
2022/05/21 07:07:48;;;;;;;1.90;1.80;;;;;;;;;;5065817;28;20200;-77
2022/05/21 07:10:20;;;;;;;1.80;1.70;;;;;;;;;;5048641;28;20201;-77
2022/05/21 07:12:47;;;;;;;2.80;2.03;;;;;;;;;;5048405;28;20189;-77
2022/05/21 07:15:15;;;;;;;2.30;2.10;;;;;;;;;;5048926;28;20201;-77
2022/05/21 07:17:45;;;;;;;5.00;2.00;;;;;;;;;;5048262;28;20208;-77
2022/05/21 07:20:15;;;;;;;1.93;1.80;;;;;;;;;;5048550;28;20208;-77
2022/05/21 07:22:42;;;;;;;3.60;1.80;;;;;;;;;;5048673;28;20217;-77
2022/05/21 07:25:11;;;;;;;2.03;1.50;;;;;;;;;;5048832;28;20201;-77
2022/05/21 07:27:38;;;;;;;3.07;1.87;;;;;;;;;;5047694;28;20280;-78
2022/05/21 07:30:06;;;;;;;2.60;1.87;;;;;;;;;;5048407;28;20292;-77
2022/05/21 07:32:34;;;;;;;2.43;2.00;;;;;;;;;;5048124;28;20228;-77
2022/05/21 07:35:05;;;;;;;3.10;2.60;;;;;;;;;;5048800;28;20231;-78
2022/05/21 07:37:32;;;;;;;3.20;2.30;;;;;;;;;;5048518;28;20281;-77
2022/05/21 07:40:00;;;;;;;3.40;2.27;;;;;;;;;;5048250;28;20242;-77
2022/05/21 07:42:27;;;;;;;8.67;2.77;;;;;;;;;;5048065;28;20670;-78
2022/05/21 07:44:54;;;;;;;3.63;2.40;;;;;;;;;;5151695;27;20229;-77
2022/05/21 07:47:24;;;;;;;4.43;2.37;;;;;;;;;;5153178;27;20206;-77
2022/05/21 07:49:54;;;;;;;2.07;1.97;;;;;;;;;;5153293;27;20190;-77
2022/05/21 07:52:23;;;;;;;5.20;2.70;;;;;;;;;;5153130;27;20205;-77
2022/05/21 07:54:50;;;;;;;4.37;2.40;;;;;;;;;;5153221;27;20289;-77
2022/05/21 07:57:18;;;;;;;4.67;2.30;;;;;;;;;;5153022;27;20286;-77
2022/05/21 07:59:45;;;;;;;2.43;2.23;;;;;;;;;;5075878;27;20213;-77
2022/05/21 08:02:15;;;;;;;2.63;1.93;;;;;;;;;;5048963;28;20240;-77
2022/05/21 08:04:42;;;;;;;3.27;2.33;;;;;;;;;;5051624;28;20198;-78
2022/05/21 08:07:10;;;;;;;2.63;2.43;;;;;;;;;;5051426;28;20582;-78
2022/05/21 08:09:39;;;;;;;2.40;2.20;;;;;;;;;;5051341;28;20233;-77
2022/05/21 08:12:08;;;;;;;5.87;2.47;;;;;;;;;;5051492;28;20226;-77
2022/05/21 08:14:35;;;;;;;3.97;2.57;;;;;;;;;;5051460;28;20258;-77
2022/05/21 08:17:02;;;;;;;2.70;2.50;;;;;;;;;;5051324;28;20286;-78
2022/05/21 08:19:30;;;;;;;5.43;2.87;;;;;;;;;;5051475;28;20198;-78
2022/05/21 08:26:56;;;;;;;2.63;2.43;;;;;;;;;;5051130;28;20194;-78
2022/05/21 08:27:31;;;;;;;4.07;2.90;;;;;;;;;;5050979;28;20177;-78
2022/05/21 08:29:58;;;;;;;9.33;3.23;;;;;;;;;;5051368;28;20202;-78
2022/05/21 08:32:26;;;;;;;2.67;2.47;;;;;;;;;;5050880;28;20225;-78
2022/05/21 08:34:53;;;;;;;3.47;2.43;;;;;;;;;;5051633;28;20190;-78
2022/05/21 08:37:21;;;;;;;5.00;2.30;;;;;;;;;;5050964;28;20216;-78
2022/05/21 08:39:49;;;;;;;4.20;2.23;;;;;;;;;;5093363;27;20201;-78
2022/05/21 08:42:20;;;;;;;5.43;2.50;;;;;;;;;;5049168;28;20190;-78
2022/05/21 08:44:49;;;;;;;4.07;3.20;;;;;;;;;;5051183;28;20182;-77
2022/05/21 08:47:20;;;;;;;7.07;2.90;;;;;;;;;;5042821;28;20316;-78
2022/05/21 08:49:53;;;;;;;4.27;2.17;;;;;;;;;;5034528;28;20263;-78
2022/05/21 08:52:23;;;;;;;4.30;2.50;;;;;;;;;;5031108;28;20211;-78
2022/05/21 08:54:54;;;;;;;2.97;2.43;;;;;;;;;;5031089;28;20233;-78
2022/05/21 08:57:25;;;;;;;2.37;2.17;;;;;;;;;;5030693;28;20640;-78
2022/05/21 08:59:55;;;;;;;3.73;2.70;;;;;;;;;;5031021;28;20187;-78
2022/05/21 09:02:28;;;;;;;4.37;2.43;;;;;;;;;;5030704;28;20618;-78
2022/05/21 09:04:56;;;;;;;5.93;2.70;;;;;;;;;;5030842;28;20218;-78
2022/05/21 09:07:25;;;;;;;4.13;2.23;;;;;;;;;;5030709;28;20690;-78
2022/05/21 09:10:08;;;;;;;4.67;2.30;;;;;;;;;;5031208;28;20578;-78
2022/05/21 09:12:43;;;;;;;2.47;2.27;;;;;;;;;;5030928;28;20621;-78
2022/05/21 09:16:54;;;;;;;4.53;2.47;;;;;;;;;;5030290;28;20190;-78
2022/05/21 09:18:03;;;;;;;3.33;3.03;;;;;;;;;;5030841;28;20202;-77
2022/05/21 09:20:33;;;;;;;4.73;2.30;;;;;;;;;;5030588;28;20203;-78
2022/05/21 09:23:02;;;;;;;2.60;2.20;;;;;;;;;;5030589;28;20198;-78
2022/05/21 09:25:30;;;;;;;2.40;2.00;;;;;;;;;;5030220;28;20732;-78
2022/05/21 09:28:03;;;;;;;1.90;1.80;;;;;;;;;;5030841;28;20214;-78
2022/05/21 09:30:32;;;;;;;2.53;2.13;;;;;;;;;;5030652;28;20195;-78
2022/05/21 09:33:01;;;;;;;4.27;2.07;;;;;;;;;;5030577;28;20237;-78
2022/05/21 09:35:29;;;;;;;4.20;2.73;;;;;;;;;;5030393;28;20205;-78
2022/05/21 09:37:57;;;;;;;9.03;3.57;;;;;;;;;;5030651;28;20224;-78
2022/05/21 09:40:34;;;;;;;5.43;3.00;;;;;;;;;;5030268;28;20198;-78
2022/05/21 09:45:46;;;;;;;4.67;2.23;;;;;;;;;;5030647;28;20712;-78
2022/05/21 09:48:23;;;;;;;2.77;1.83;;;;;;;;;;5030242;28;20608;-78
2022/05/21 09:50:52;;;;;;;3.17;1.83;;;;;;;;;;5030474;28;20193;-78
2022/05/21 09:53:30;;;;;;;2.77;2.20;;;;;;;;;;5029670;28;20219;-78
2022/05/21 09:56:02;;;;;;;3.97;2.53;;;;;;;;;;5030031;28;20191;-78
2022/05/21 09:58:34;;;;;;;4.47;2.03;;;;;;;;;;5030398;28;20577;-78
2022/05/21 10:01:01;;;;;;;6.27;2.47;;;;;;;;;;5029733;28;20234;-78
2022/05/21 10:03:40;;;;;;;2.00;1.90;;;;;;;;;;5030141;28;20224;-78
2022/05/21 10:06:21;;;;;;;3.47;2.20;;;;;;;;;;5029800;28;20202;-78
2022/05/21 10:11:44;;;;;;;2.40;2.20;;;;;;;;;;5030046;28;20596;-78
2022/05/21 10:14:17;;;;;;;4.40;2.03;;;;;;;;;;5029639;28;20186;-78
2022/05/21 10:16:47;;;;;;;2.10;1.90;;;;;;;;;;5030081;28;20191;-78
2022/05/21 10:19:17;;;;;;;7.00;2.40;;;;;;;;;;5030044;28;20224;-78
2022/05/21 10:21:57;;;;;;;4.10;2.20;;;;;;;;;;5029849;28;20187;-78
2022/05/21 10:24:33;;;;;;;2.90;2.23;;;;;;;;;;5029588;28;20281;-78
2022/05/21 10:27:08;;;;;;;3.13;2.50;;;;;;;;;;5029359;28;20746;-78
2022/05/21 10:29:54;;;;;;;3.50;1.97;;;;;;;;;;5029761;28;20187;-79
2022/05/21 10:32:27;;;;;;;3.55;2.70;;;;;;;;;;5029516;28;20214;-78
2022/05/21 10:35:02;;;;;;;3.33;1.98;;;;;;;;;;5029491;28;20193;-78
2022/05/21 10:37:41;;;;;;;5.22;2.30;;;;;;;;;;5029164;28;20657;-78
2022/05/21 10:40:19;;;;;;;2.30;2.10;;;;;;;;;;5029457;28;20187;-78
2022/05/21 10:42:58;;;;;;;4.50;1.90;;;;;;;;;;5029809;28;20183;-78
2022/05/21 10:45:29;;;;;;;4.35;1.90;;;;;;;;;;5029430;28;20654;-78
2022/05/21 10:48:29;;;;;;;1.90;1.70;;;;;;;;;;5029300;28;20299;-78
2022/05/21 10:51:00;;;;;;;4.38;2.03;;;;;;;;;;5029207;28;20183;-78
2022/05/21 10:53:51;;;;;;;6.97;2.13;;;;;;;;;;5029184;28;20210;-78
2022/05/21 10:56:47;;;;;;;3.42;2.00;;;;;;;;;;5028764;28;20203;-78
2022/05/21 10:59:26;;;;;;;3.33;1.77;;;;;;;;;;5027123;28;20195;-79
2022/05/21 11:02:00;;;;;;;7.35;2.85;;;;;;;;;;5035145;28;20229;-78
2022/05/21 11:04:53;;;;;;;10.05;2.90;;;;;;;;;;5044426;28;20210;-78
2022/05/21 11:07:38;;;;;;;5.32;2.03;;;;;;;;;;5029085;28;20186;-76
2022/05/21 11:10:12;;;;;;;18.75;3.88;;;;;;;;;;5047008;28;20209;-76
2022/05/21 11:12:48;;;;;;;2.13;1.75;;;;;;;;;;5048875;28;20210;-79
2022/05/21 11:15:39;;;;;;;2.65;2.28;;;;;;;;;;5049094;28;20185;-79
2022/05/21 11:18:13;;;;;;;3.63;1.80;;;;;;;;;;5049574;28;20187;-79
2022/05/21 11:20:43;;;;;;;2.47;2.28;;;;;;;;;;5048792;28;20241;-78
2022/05/21 11:23:14;;;;;;;2.00;1.90;;;;;;;;;;5048916;28;20189;-79
2022/05/21 11:25:45;;;;;;;3.50;1.92;;;;;;;;;;5048961;28;20277;-78
2022/05/21 11:28:26;;;;;;;2.08;1.88;;;;;;;;;;5048793;28;20243;-78
2022/05/21 11:30:56;;;;;;;1.85;1.75;;;;;;;;;;5048458;28;20276;-78
2022/05/21 11:38:56;;;;;;;2.60;1.88;;;;;;;;;;5033452;28;20210;-78
2022/05/21 11:41:28;;;;;;;3.17;1.75;;;;;;;;;;5032258;28;20198;-80
2022/05/21 11:46:54;;;;;;;1.65;1.52;;;;;;;;;;5032748;28;20271;-78
2022/05/21 11:49:49;;;;;;;2.50;2.10;;;;;;;;;;5032104;28;20659;-78
2022/05/21 11:52:45;;;;;;;1.77;1.52;;;;;;;;;;4986554;28;20307;-78
2022/05/21 11:55:18;;;;;;;1.20;1.20;;;;;;;;;;4952311;28;20208;-78
2022/05/21 11:57:47;;;;;;;3.20;2.00;;;;;;;;;;4951936;29;20206;-78
2022/05/21 12:00:49;;;;;;;2.10;1.90;;;;;;;;;;4951389;29;20737;-79
2022/05/21 12:03:53;;;;;;;2.72;1.95;;;;;;;;;;4952082;29;20309;-78
2022/05/21 12:06:32;;;;;;;1.73;1.60;;;;;;;;;;4951833;29;20189;-78
2022/05/21 12:09:23;;;;;;;2.47;2.28;;;;;;;;;;4951913;29;20186;-77
2022/05/21 12:11:51;;;;;;;3.10;1.90;;;;;;;;;;4951365;29;20304;-77
2022/05/21 12:14:25;;;;;;;2.42;2.08;;;;;;;;;;4951705;29;20210;-77
2022/05/21 12:16:59;;;;;;;2.50;1.80;;;;;;;;;;4951617;29;20236;-77
2022/05/21 12:20:06;;;;;;;4.10;1.75;;;;;;;;;;4951416;29;20217;-77
2022/05/21 12:22:44;;;;;;;1.50;1.40;;;;;;;;;;4951432;29;20186;-77
2022/05/21 12:25:14;;;;;;;2.13;1.73;;;;;;;;;;4958461;28;20205;-77
2022/05/21 12:27:52;;;;;;;2.50;1.67;;;;;;;;;;4954924;28;20210;-77
2022/05/21 12:30:26;;;;;;;2.78;2.00;;;;;;;;;;4970060;28;20202;-77
2022/05/21 12:32:53;;;;;;;1.90;1.70;;;;;;;;;;5031355;28;20641;-77
2022/05/21 12:35:33;;;;;;;4.32;1.90;;;;;;;;;;5031546;28;20199;-77
2022/05/21 12:38:09;;;;;;;3.25;1.80;;;;;;;;;;5031309;28;20187;-76
2022/05/21 12:40:42;;;;;;;1.88;1.67;;;;;;;;;;5030996;28;20193;-77
2022/05/21 12:43:11;;;;;;;2.72;1.80;;;;;;;;;;5031523;28;20186;-77
2022/05/21 12:45:43;;;;;;;2.17;1.55;;;;;;;;;;5031144;28;20679;-76
2022/05/21 12:48:13;;;;;;;2.45;2.25;;;;;;;;;;5030590;28;20179;-76
2022/05/21 12:50:52;;;;;;;3.13;1.45;;;;;;;;;;5030661;28;20278;-76
2022/05/21 12:53:25;;;;;;;2.20;1.80;;;;;;;;;;5031103;28;20211;-77
2022/05/21 12:56:01;;;;;;;2.00;1.87;;;;;;;;;;5030852;28;20195;-76
2022/05/21 12:58:28;;;;;;;2.80;1.75;;;;;;;;;;5031357;28;20244;-76
2022/05/21 13:00:57;;;;;;;4.17;2.10;;;;;;;;;;5031130;28;20231;-76
2022/05/21 13:03:26;;;;;;;2.40;1.50;;;;;;;;;;5030968;28;20290;-76
2022/05/21 13:05:56;;;;;;;1.60;1.50;;;;;;;;;;5030827;28;20206;-76
2022/05/21 13:08:25;;;;;;;2.97;1.73;;;;;;;;;;5031304;28;20195;-77
2022/05/21 13:11:00;;;;;;;2.53;1.53;;;;;;;;;;5031107;28;20194;-77
2022/05/21 13:13:29;;;;;;;2.67;1.40;;;;;;;;;;5030874;28;20259;-77
2022/05/21 13:15:58;;;;;;;4.30;1.70;;;;;;;;;;5030669;28;20293;-77
2022/05/21 13:18:36;;;;;;;1.70;1.60;;;;;;;;;;5030798;28;20743;-77
2022/05/21 13:21:10;;;;;;;1.60;1.50;;;;;;;;;;5030423;28;20193;-77
2022/05/21 13:23:51;;;;;;;1.60;1.50;;;;;;;;;;5031046;28;20187;-76
2022/05/21 13:26:21;;;;;;;2.00;1.30;;;;;;;;;;5030658;28;20197;-77
2022/05/21 13:28:48;;;;;;;2.70;1.50;;;;;;;;;;5030934;28;20217;-76
2022/05/21 13:31:19;;;;;;;1.47;1.37;;;;;;;;;;5030652;28;20542;-76
2022/05/21 13:33:50;;;;;;;3.73;2.00;;;;;;;;;;5030997;28;20666;-77
2022/05/21 13:36:20;;;;;;;1.57;1.47;;;;;;;;;;5030634;28;20246;-76
2022/05/21 13:38:53;;;;;;;6.80;2.47;;;;;;;;;;5030473;28;20224;-76
2022/05/21 13:41:29;;;;;;;5.03;1.60;;;;;;;;;;5030322;28;20183;-76
2022/05/21 13:43:56;;;;;;;4.13;1.60;;;;;;;;;;5035321;28;20190;-76
2022/05/21 13:46:25;;;;;;;2.93;1.60;;;;;;;;;;5038062;28;20202;-76
2022/05/21 13:48:55;;;;;;;1.60;1.50;;;;;;;;;;5030350;28;20212;-76
2022/05/21 13:51:23;;;;;;;2.77;1.43;;;;;;;;;;5029955;28;20965;-76
2022/05/21 13:53:54;;;;;;;1.63;1.53;;;;;;;;;;5030179;28;20233;-76
2022/05/21 13:56:36;;;;;;;1.60;1.50;;;;;;;;;;5030321;28;20187;-77
2022/05/21 13:59:15;;;;;;;1.33;1.23;;;;;;;;;;5030131;28;20199;-77
2022/05/21 14:01:45;;;;;;;2.47;1.40;;;;;;;;;;5029491;28;20289;-77
2022/05/21 14:04:31;;;;;;;5.27;1.87;;;;;;;;;;5030049;28;20206;-76
2022/05/21 14:06:58;;;;;;;2.17;1.97;;;;;;;;;;5029842;28;20191;-76
2022/05/21 14:09:29;;;;;;;2.47;1.63;;;;;;;;;;5029993;28;20195;-77
2022/05/21 14:11:57;;;;;;;3.53;1.60;;;;;;;;;;5030129;28;20187;-76
2022/05/21 14:14:27;;;;;;;2.27;1.50;;;;;;;;;;5029810;28;20229;-76
2022/05/21 14:17:10;;;;;;;2.23;1.73;;;;;;;;;;5030061;28;20230;-77
2022/05/21 14:19:38;;;;;;;4.37;1.90;;;;;;;;;;5044882;27;20209;-77
2022/05/21 14:22:06;;;;;;;1.70;1.60;;;;;;;;;;5050517;27;20267;-77
2022/05/21 14:24:36;;;;;;;1.90;1.57;;;;;;;;;;5029992;28;20191;-77
2022/05/21 14:27:05;;;;;;;3.20;1.30;;;;;;;;;;5029883;28;20191;-79
2022/05/21 14:29:50;;;;;;;2.80;1.53;;;;;;;;;;5030048;28;20195;-77
2022/05/21 14:32:30;;;;;;;2.93;2.13;;;;;;;;;;5030676;28;20190;-83
2022/05/21 14:35:17;;;;;;;1.30;1.20;;;;;;;;;;5029891;28;20255;-79
2022/05/21 14:37:45;;;;;;;1.60;1.43;;;;;;;;;;5029426;28;20202;-76
2022/05/21 14:40:14;;;;;;;4.40;1.50;;;;;;;;;;5029359;28;20199;-76
2022/05/21 14:42:42;;;;;;;10.73;3.77;;;;;;;;;;5029269;27;20198;-76
2022/05/21 14:45:14;;;;;;;2.00;1.63;;;;;;;;;;5029375;28;20206;-76
2022/05/21 14:47:54;;;;;;;1.87;1.77;;;;;;;;;;5029605;28;20179;-76
2022/05/21 14:53:08;;;;;;;2.10;1.70;;;;;;;;;;5029297;28;20206;-76
2022/05/21 14:55:38;;;;;;;1.20;1.10;;;;;;;;;;5029075;28;20206;-76
2022/05/21 14:58:06;;;;;;;1.60;1.50;;;;;;;;;;5029585;28;20643;-77
2022/05/21 15:00:33;;;;;;;2.90;1.63;;;;;;;;;;5028980;28;20253;-77
2022/05/21 15:03:00;;;;;;;1.70;1.60;;;;;;;;;;5029186;28;20242;-77
2022/05/21 15:05:30;;;;;;;1.70;1.60;;;;;;;;;;5029391;28;20202;-77
2022/05/21 15:07:58;;;;;;;1.60;1.50;;;;;;;;;;5029055;28;20209;-77
2022/05/21 15:10:26;;;;;;;3.63;1.70;;;;;;;;;;5028994;28;20251;-77
2022/05/21 15:12:55;;;;;;;2.13;1.70;;;;;;;;;;5028318;28;20198;-77
2022/05/21 15:15:22;;;;;;;1.40;1.30;;;;;;;;;;5028863;28;20198;-77
2022/05/21 15:17:50;;;;;;;2.57;1.53;;;;;;;;;;5029217;28;20686;-77
2022/05/21 15:20:19;;;;;;;2.57;1.53;;;;;;;;;;5028853;28;20237;-77
2022/05/21 15:22:48;;;;;;;2.60;1.47;;;;;;;;;;5028951;28;20195;-77
2022/05/21 15:25:17;;;;;;;4.67;1.23;;;;;;;;;;5028936;28;20311;-77
2022/05/21 15:27:46;;;;;;;2.70;1.43;;;;;;;;;;5028769;28;20594;-77
2022/05/21 15:30:16;;;;;;;1.60;1.50;;;;;;;;;;5028740;28;20646;-77
2022/05/21 15:32:43;;;;;;;4.80;1.83;;;;;;;;;;5029119;28;20217;-77
2022/05/21 15:35:12;;;;;;;2.17;1.40;;;;;;;;;;5028436;28;20312;-78